Aérodrome :
LOGIN :

S'inscrire | Disclaimer

   EN    FR    IT 

 










Légende :    VFR   VFR Marginal   IFR   IFR Intensif   IFR Très Intensif
Visi : 
Plafond : 
>= 8 km
>= 3000ft
5 à 8 km
1000 à 3000 ft
1500m à 5 km
500 à 1000 ft
800 à 1500m
200 à 500 ft
< 800m
< 200 ft
Symboles :   Orages  Brouillard  Fortes neiges  Fortes précipitations  Vent > 20 kt
SIGMETs :   Divers  Orages  Givrage  Turbulence  Onde Orograph.  Cendres Volcan.






- Altitude de l'aérodrome : 0 ft


ENSL - Sleipner A Platform

DERNIER METAR :
  • 290920Z AUTO 34024KT 9999NDV FEW037/// BKN047/// 04/M06 Q1043 W04/S5

METARs EXPIRÉS :
  • 290850Z AUTO 33018KT 9999NDV -SHRA BKN041/// 04/M03 Q1043 W03/S5
  • 290820Z AUTO 33022KT 9999NDV -SHRA FEW040/// OVC052/// 04/M03 Q1043 W04/S5
  • 290750Z AUTO 35021KT 9999NDV BKN042/// 04/M05 Q1043 W03/S5
  • 290720Z AUTO 35018KT 9999NDV -SHRA OVC045/// 04/M04 Q1043 W03/S5
  • 290650Z AUTO 35023KT 9999NDV -SHRASN BKN035/// 04/M04 Q1043 W03/S5

Prévision TAF périmée.



MET'MAP, la Météo Aéronautique d'un coup d'oeil ! - Copyright ORBIFLY Décembre 2007 - Disclaimer

ORBIFLY MET'MAP TEAM :

Programmation & Développement : Alexandra Zaïnal
Sur une idée originale de : Baudouin d'Aumeries
Assistance à la programmation : Marc-Olivier Méhu
Soutien technique & logistique : Manuel Goepfert

Contact : metmap@orbifly.com




SOURCES & CREDITS :

   NOAA